sensor_id;sensor_type;location;lat;lon;timestamp;P1;durP1;ratioP1;P2;durP2;ratioP2
19547;SDS011;9919;58.014;11.826;2023-07-31T00:00:17;0.55;;;0.55;;
19547;SDS011;9919;58.014;11.826;2023-07-31T00:02:19;0.50;;;0.50;;
19547;SDS011;9919;58.014;11.826;2023-07-31T00:04:21;0.43;;;0.43;;
19547;SDS011;9919;58.014;11.826;2023-07-31T00:06:22;0.70;;;0.70;;
19547;SDS011;9919;58.014;11.826;2023-07-31T00:08:24;0.90;;;0.60;;
19547;SDS011;9919;58.014;11.826;2023-07-31T00:10:26;0.55;;;0.55;;
19547;SDS011;9919;58.014;11.826;2023-07-31T00:12:27;0.50;;;0.50;;
19547;SDS011;9919;58.014;11.826;2023-07-31T00:14:29;0.90;;;0.75;;
19547;SDS011;9919;58.014;11.826;2023-07-31T00:16:31;0.57;;;0.57;;
19547;SDS011;9919;58.014;11.826;2023-07-31T00:18:33;1.20;;;0.60;;
19547;SDS011;9919;58.014;11.826;2023-07-31T00:20:34;0.50;;;0.50;;
19547;SDS011;9919;58.014;11.826;2023-07-31T00:22:36;1.85;;;0.60;;
19547;SDS011;9919;58.014;11.826;2023-07-31T00:24:39;0.85;;;0.85;;
19547;SDS011;9919;58.014;11.826;2023-07-31T00:26:40;1.38;;;0.60;;
19547;SDS011;9919;58.014;11.826;2023-07-31T00:28:41;0.45;;;0.45;;
19547;SDS011;9919;58.014;11.826;2023-07-31T00:30:43;0.35;;;0.35;;
19547;SDS011;9919;58.014;11.826;2023-07-31T00:32:44;0.70;;;0.68;;
19547;SDS011;9919;58.014;11.826;2023-07-31T00:34:46;0.60;;;0.60;;
19547;SDS011;9919;58.014;11.826;2023-07-31T00:36:47;0.77;;;0.77;;
19547;SDS011;9919;58.014;11.826;2023-07-31T00:38:48;0.70;;;0.70;;
19547;SDS011;9919;58.014;11.826;2023-07-31T00:40:50;0.73;;;0.73;;
19547;SDS011;9919;58.014;11.826;2023-07-31T00:42:51;0.70;;;0.70;;
19547;SDS011;9919;58.014;11.826;2023-07-31T00:44:53;0.60;;;0.60;;
19547;SDS011;9919;58.014;11.826;2023-07-31T00:46:54;0.55;;;0.52;;
19547;SDS011;9919;58.014;11.826;2023-07-31T00:48:59;1.15;;;0.82;;
19547;SDS011;9919;58.014;11.826;2023-07-31T00:51:00;0.47;;;0.47;;
19547;SDS011;9919;58.014;11.826;2023-07-31T00:53:02;0.60;;;0.57;;
19547;SDS011;9919;58.014;11.826;2023-07-31T00:55:04;0.68;;;0.68;;
19547;SDS011;9919;58.014;11.826;2023-07-31T00:57:06;0.60;;;0.60;;
19547;SDS011;9919;58.014;11.826;2023-07-31T00:59:08;0.70;;;0.70;;
19547;SDS011;9919;58.014;11.826;2023-07-31T01:01:09;0.63;;;0.63;;
19547;SDS011;9919;58.014;11.826;2023-07-31T01:03:11;0.70;;;0.70;;
19547;SDS011;9919;58.014;11.826;2023-07-31T01:05:12;0.68;;;0.68;;
19547;SDS011;9919;58.014;11.826;2023-07-31T01:07:18;0.75;;;0.75;;
19547;SDS011;9919;58.014;11.826;2023-07-31T01:09:25;0.77;;;0.77;;
19547;SDS011;9919;58.014;11.826;2023-07-31T01:11:38;0.50;;;0.50;;
19547;SDS011;9919;58.014;11.826;2023-07-31T01:13:46;0.60;;;0.60;;
19547;SDS011;9919;58.014;11.826;2023-07-31T01:15:49;0.77;;;0.60;;
19547;SDS011;9919;58.014;11.826;2023-07-31T01:17:51;0.60;;;0.60;;
19547;SDS011;9919;58.014;11.826;2023-07-31T01:19:54;0.60;;;0.60;;
19547;SDS011;9919;58.014;11.826;2023-07-31T01:24:28;0.60;;;0.60;;
19547;SDS011;9919;58.014;11.826;2023-07-31T01:26:40;0.70;;;0.70;;
19547;SDS011;9919;58.014;11.826;2023-07-31T01:29:47;0.75;;;0.65;;
19547;SDS011;9919;58.014;11.826;2023-07-31T01:31:21;0.70;;;0.70;;
19547;SDS011;9919;58.014;11.826;2023-07-31T01:33:24;1.02;;;0.80;;
19547;SDS011;9919;58.014;11.826;2023-07-31T01:35:25;0.65;;;0.65;;
19547;SDS011;9919;58.014;11.826;2023-07-31T01:37:30;1.02;;;0.70;;
19547;SDS011;9919;58.014;11.826;2023-07-31T01:39:31;0.60;;;0.60;;
19547;SDS011;9919;58.014;11.826;2023-07-31T01:41:33;0.60;;;0.57;;
19547;SDS011;9919;58.014;11.826;2023-07-31T01:43:34;0.68;;;0.68;;
19547;SDS011;9919;58.014;11.826;2023-07-31T01:45:36;0.55;;;0.55;;
19547;SDS011;9919;58.014;11.826;2023-07-31T01:47:37;0.85;;;0.85;;
19547;SDS011;9919;58.014;11.826;2023-07-31T01:49:38;0.90;;;0.90;;
19547;SDS011;9919;58.014;11.826;2023-07-31T01:51:40;0.82;;;0.82;;
19547;SDS011;9919;58.014;11.826;2023-07-31T01:53:41;0.52;;;0.52;;
19547;SDS011;9919;58.014;11.826;2023-07-31T01:55:43;0.70;;;0.70;;
19547;SDS011;9919;58.014;11.826;2023-07-31T01:57:45;0.60;;;0.60;;
19547;SDS011;9919;58.014;11.826;2023-07-31T01:59:48;0.75;;;0.70;;
19547;SDS011;9919;58.014;11.826;2023-07-31T02:01:50;0.90;;;0.77;;
19547;SDS011;9919;58.014;11.826;2023-07-31T02:03:52;0.52;;;0.52;;
19547;SDS011;9919;58.014;11.826;2023-07-31T02:05:54;0.57;;;0.57;;
19547;SDS011;9919;58.014;11.826;2023-07-31T02:07:56;1.75;;;0.68;;
19547;SDS011;9919;58.014;11.826;2023-07-31T02:09:58;0.55;;;0.55;;
19547;SDS011;9919;58.014;11.826;2023-07-31T02:11:59;0.60;;;0.60;;
19547;SDS011;9919;58.014;11.826;2023-07-31T02:14:00;0.98;;;0.90;;
19547;SDS011;9919;58.014;11.826;2023-07-31T02:16:02;0.60;;;0.60;;
19547;SDS011;9919;58.014;11.826;2023-07-31T02:18:03;0.60;;;0.60;;
19547;SDS011;9919;58.014;11.826;2023-07-31T02:20:05;0.55;;;0.55;;
19547;SDS011;9919;58.014;11.826;2023-07-31T02:22:07;0.55;;;0.55;;
19547;SDS011;9919;58.014;11.826;2023-07-31T02:24:08;0.30;;;0.30;;
19547;SDS011;9919;58.014;11.826;2023-07-31T02:26:10;0.40;;;0.40;;
19547;SDS011;9919;58.014;11.826;2023-07-31T02:28:11;1.15;;;0.93;;
19547;SDS011;9919;58.014;11.826;2023-07-31T02:30:13;1.27;;;0.80;;
19547;SDS011;9919;58.014;11.826;2023-07-31T02:32:14;0.60;;;0.60;;
19547;SDS011;9919;58.014;11.826;2023-07-31T02:34:16;1.15;;;0.80;;
19547;SDS011;9919;58.014;11.826;2023-07-31T02:36:17;0.68;;;0.68;;
19547;SDS011;9919;58.014;11.826;2023-07-31T02:38:19;0.50;;;0.50;;
19547;SDS011;9919;58.014;11.826;2023-07-31T02:40:20;0.65;;;0.60;;
19547;SDS011;9919;58.014;11.826;2023-07-31T02:42:21;0.70;;;0.70;;
19547;SDS011;9919;58.014;11.826;2023-07-31T02:44:23;1.60;;;0.70;;
19547;SDS011;9919;58.014;11.826;2023-07-31T02:46:24;0.70;;;0.70;;
19547;SDS011;9919;58.014;11.826;2023-07-31T02:48:25;0.55;;;0.55;;
19547;SDS011;9919;58.014;11.826;2023-07-31T02:50:27;0.70;;;0.70;;
19547;SDS011;9919;58.014;11.826;2023-07-31T02:52:28;0.57;;;0.55;;
19547;SDS011;9919;58.014;11.826;2023-07-31T02:54:30;0.52;;;0.52;;
19547;SDS011;9919;58.014;11.826;2023-07-31T02:56:31;0.90;;;0.60;;
19547;SDS011;9919;58.014;11.826;2023-07-31T02:58:33;0.70;;;0.70;;
19547;SDS011;9919;58.014;11.826;2023-07-31T03:00:34;0.90;;;0.75;;
19547;SDS011;9919;58.014;11.826;2023-07-31T03:02:36;1.05;;;0.98;;
19547;SDS011;9919;58.014;11.826;2023-07-31T03:04:37;0.60;;;0.60;;
19547;SDS011;9919;58.014;11.826;2023-07-31T03:06:39;0.77;;;0.68;;
19547;SDS011;9919;58.014;11.826;2023-07-31T03:08:40;0.73;;;0.70;;
19547;SDS011;9919;58.014;11.826;2023-07-31T03:10:42;0.73;;;0.73;;
19547;SDS011;9919;58.014;11.826;2023-07-31T03:12:46;0.63;;;0.63;;
19547;SDS011;9919;58.014;11.826;2023-07-31T03:14:48;0.77;;;0.77;;
19547;SDS011;9919;58.014;11.826;2023-07-31T03:16:49;0.60;;;0.60;;
19547;SDS011;9919;58.014;11.826;2023-07-31T03:18:51;0.60;;;0.60;;
19547;SDS011;9919;58.014;11.826;2023-07-31T03:20:53;0.63;;;0.63;;
19547;SDS011;9919;58.014;11.826;2023-07-31T03:22:55;1.05;;;0.70;;
19547;SDS011;9919;58.014;11.826;2023-07-31T03:24:56;0.60;;;0.60;;
19547;SDS011;9919;58.014;11.826;2023-07-31T03:26:57;0.63;;;0.63;;
19547;SDS011;9919;58.014;11.826;2023-07-31T03:28:59;0.70;;;0.70;;
19547;SDS011;9919;58.014;11.826;2023-07-31T03:31:00;0.80;;;0.80;;
19547;SDS011;9919;58.014;11.826;2023-07-31T03:33:01;0.50;;;0.50;;
19547;SDS011;9919;58.014;11.826;2023-07-31T03:35:04;0.50;;;0.50;;
19547;SDS011;9919;58.014;11.826;2023-07-31T03:37:06;1.17;;;0.63;;
19547;SDS011;9919;58.014;11.826;2023-07-31T03:39:09;0.50;;;0.50;;
19547;SDS011;9919;58.014;11.826;2023-07-31T03:41:10;0.98;;;0.65;;
19547;SDS011;9919;58.014;11.826;2023-07-31T03:43:12;0.63;;;0.52;;
19547;SDS011;9919;58.014;11.826;2023-07-31T03:45:13;0.75;;;0.70;;
19547;SDS011;9919;58.014;11.826;2023-07-31T03:47:16;0.65;;;0.65;;
19547;SDS011;9919;58.014;11.826;2023-07-31T03:49:18;1.27;;;0.77;;
19547;SDS011;9919;58.014;11.826;2023-07-31T03:51:20;0.77;;;0.77;;
19547;SDS011;9919;58.014;11.826;2023-07-31T03:53:21;0.50;;;0.50;;
19547;SDS011;9919;58.014;11.826;2023-07-31T03:55:23;0.63;;;0.63;;
19547;SDS011;9919;58.014;11.826;2023-07-31T03:57:24;0.63;;;0.43;;
19547;SDS011;9919;58.014;11.826;2023-07-31T03:59:27;0.70;;;0.70;;
19547;SDS011;9919;58.014;11.826;2023-07-31T04:01:29;0.60;;;0.60;;
19547;SDS011;9919;58.014;11.826;2023-07-31T04:03:30;0.60;;;0.60;;
19547;SDS011;9919;58.014;11.826;2023-07-31T04:05:32;0.60;;;0.60;;
19547;SDS011;9919;58.014;11.826;2023-07-31T04:07:34;0.70;;;0.70;;
19547;SDS011;9919;58.014;11.826;2023-07-31T04:09:35;1.98;;;0.77;;
19547;SDS011;9919;58.014;11.826;2023-07-31T04:11:36;1.27;;;0.73;;
19547;SDS011;9919;58.014;11.826;2023-07-31T04:13:39;1.20;;;0.95;;
19547;SDS011;9919;58.014;11.826;2023-07-31T04:15:40;1.55;;;1.00;;
19547;SDS011;9919;58.014;11.826;2023-07-31T04:17:42;0.70;;;0.70;;
19547;SDS011;9919;58.014;11.826;2023-07-31T04:19:43;0.63;;;0.63;;
19547;SDS011;9919;58.014;11.826;2023-07-31T04:21:45;0.95;;;0.73;;
19547;SDS011;9919;58.014;11.826;2023-07-31T04:23:46;0.60;;;0.60;;
19547;SDS011;9919;58.014;11.826;2023-07-31T04:25:47;0.32;;;0.32;;
19547;SDS011;9919;58.014;11.826;2023-07-31T04:27:50;0.75;;;0.75;;
19547;SDS011;9919;58.014;11.826;2023-07-31T04:29:51;0.50;;;0.50;;
19547;SDS011;9919;58.014;11.826;2023-07-31T04:31:53;1.17;;;0.55;;
19547;SDS011;9919;58.014;11.826;2023-07-31T04:33:54;0.50;;;0.50;;
19547;SDS011;9919;58.014;11.826;2023-07-31T04:35:55;0.63;;;0.63;;
19547;SDS011;9919;58.014;11.826;2023-07-31T04:37:57;0.60;;;0.60;;
19547;SDS011;9919;58.014;11.826;2023-07-31T04:39:59;0.68;;;0.68;;
19547;SDS011;9919;58.014;11.826;2023-07-31T04:42:00;0.60;;;0.60;;
19547;SDS011;9919;58.014;11.826;2023-07-31T04:44:01;0.60;;;0.60;;
19547;SDS011;9919;58.014;11.826;2023-07-31T04:46:06;2.47;;;0.77;;
19547;SDS011;9919;58.014;11.826;2023-07-31T04:48:07;0.70;;;0.70;;
19547;SDS011;9919;58.014;11.826;2023-07-31T04:50:09;0.73;;;0.70;;
19547;SDS011;9919;58.014;11.826;2023-07-31T04:52:11;0.68;;;0.68;;
19547;SDS011;9919;58.014;11.826;2023-07-31T04:54:13;0.57;;;0.57;;
19547;SDS011;9919;58.014;11.826;2023-07-31T04:56:17;0.82;;;0.82;;
19547;SDS011;9919;58.014;11.826;2023-07-31T04:58:18;0.70;;;0.70;;
19547;SDS011;9919;58.014;11.826;2023-07-31T05:00:19;1.52;;;0.63;;
19547;SDS011;9919;58.014;11.826;2023-07-31T05:02:21;0.60;;;0.60;;
19547;SDS011;9919;58.014;11.826;2023-07-31T05:04:22;0.65;;;0.65;;
19547;SDS011;9919;58.014;11.826;2023-07-31T05:06:24;1.95;;;0.70;;
19547;SDS011;9919;58.014;11.826;2023-07-31T05:08:25;0.60;;;0.60;;
19547;SDS011;9919;58.014;11.826;2023-07-31T05:10:26;1.17;;;0.68;;
19547;SDS011;9919;58.014;11.826;2023-07-31T05:12:28;0.70;;;0.70;;
19547;SDS011;9919;58.014;11.826;2023-07-31T05:14:29;0.50;;;0.50;;
19547;SDS011;9919;58.014;11.826;2023-07-31T05:16:31;0.90;;;0.90;;
19547;SDS011;9919;58.014;11.826;2023-07-31T05:18:37;0.43;;;0.43;;
19547;SDS011;9919;58.014;11.826;2023-07-31T05:20:38;0.60;;;0.60;;
19547;SDS011;9919;58.014;11.826;2023-07-31T05:22:39;0.70;;;0.70;;
19547;SDS011;9919;58.014;11.826;2023-07-31T05:24:41;0.47;;;0.43;;
19547;SDS011;9919;58.014;11.826;2023-07-31T05:26:43;2.08;;;0.57;;
19547;SDS011;9919;58.014;11.826;2023-07-31T05:28:45;0.55;;;0.55;;
19547;SDS011;9919;58.014;11.826;2023-07-31T05:30:47;0.68;;;0.68;;
19547;SDS011;9919;58.014;11.826;2023-07-31T05:32:48;0.50;;;0.50;;
19547;SDS011;9919;58.014;11.826;2023-07-31T05:34:52;1.67;;;0.70;;
19547;SDS011;9919;58.014;11.826;2023-07-31T05:36:54;0.43;;;0.43;;
19547;SDS011;9919;58.014;11.826;2023-07-31T05:38:55;0.70;;;0.57;;
19547;SDS011;9919;58.014;11.826;2023-07-31T05:40:57;0.60;;;0.60;;
19547;SDS011;9919;58.014;11.826;2023-07-31T05:42:59;0.70;;;0.70;;
19547;SDS011;9919;58.014;11.826;2023-07-31T05:45:00;0.93;;;0.80;;
19547;SDS011;9919;58.014;11.826;2023-07-31T05:47:02;0.55;;;0.55;;
19547;SDS011;9919;58.014;11.826;2023-07-31T05:49:03;0.63;;;0.63;;
19547;SDS011;9919;58.014;11.826;2023-07-31T05:51:05;1.27;;;0.60;;
19547;SDS011;9919;58.014;11.826;2023-07-31T05:53:07;0.50;;;0.50;;
19547;SDS011;9919;58.014;11.826;2023-07-31T05:55:08;0.70;;;0.70;;
19547;SDS011;9919;58.014;11.826;2023-07-31T05:57:09;2.53;;;0.90;;
19547;SDS011;9919;58.014;11.826;2023-07-31T05:59:11;0.93;;;0.82;;
19547;SDS011;9919;58.014;11.826;2023-07-31T06:01:16;0.50;;;0.50;;
19547;SDS011;9919;58.014;11.826;2023-07-31T06:03:18;0.50;;;0.50;;
19547;SDS011;9919;58.014;11.826;2023-07-31T06:05:19;0.80;;;0.80;;
19547;SDS011;9919;58.014;11.826;2023-07-31T06:07:21;2.22;;;0.93;;
19547;SDS011;9919;58.014;11.826;2023-07-31T06:09:23;0.60;;;0.60;;
19547;SDS011;9919;58.014;11.826;2023-07-31T06:11:25;0.75;;;0.70;;
19547;SDS011;9919;58.014;11.826;2023-07-31T06:13:27;1.00;;;0.63;;
19547;SDS011;9919;58.014;11.826;2023-07-31T06:15:28;0.80;;;0.80;;
19547;SDS011;9919;58.014;11.826;2023-07-31T06:17:30;0.65;;;0.65;;
19547;SDS011;9919;58.014;11.826;2023-07-31T06:19:31;0.43;;;0.43;;
19547;SDS011;9919;58.014;11.826;2023-07-31T06:21:33;0.60;;;0.60;;
19547;SDS011;9919;58.014;11.826;2023-07-31T06:23:37;0.50;;;0.50;;
19547;SDS011;9919;58.014;11.826;2023-07-31T06:25:38;0.75;;;0.73;;
19547;SDS011;9919;58.014;11.826;2023-07-31T06:27:40;0.55;;;0.55;;
19547;SDS011;9919;58.014;11.826;2023-07-31T06:29:42;1.45;;;0.80;;
19547;SDS011;9919;58.014;11.826;2023-07-31T06:31:43;1.42;;;0.55;;
19547;SDS011;9919;58.014;11.826;2023-07-31T06:33:44;0.63;;;0.63;;
19547;SDS011;9919;58.014;11.826;2023-07-31T06:35:46;0.55;;;0.55;;
19547;SDS011;9919;58.014;11.826;2023-07-31T06:37:47;1.60;;;0.65;;
19547;SDS011;9919;58.014;11.826;2023-07-31T06:39:48;2.72;;;0.80;;
19547;SDS011;9919;58.014;11.826;2023-07-31T06:41:51;0.80;;;0.80;;
19547;SDS011;9919;58.014;11.826;2023-07-31T06:43:52;1.30;;;1.10;;
19547;SDS011;9919;58.014;11.826;2023-07-31T06:45:54;1.08;;;0.73;;
19547;SDS011;9919;58.014;11.826;2023-07-31T06:47:55;0.65;;;0.65;;
19547;SDS011;9919;58.014;11.826;2023-07-31T06:49:58;0.47;;;0.47;;
19547;SDS011;9919;58.014;11.826;2023-07-31T06:52:00;0.60;;;0.60;;
19547;SDS011;9919;58.014;11.826;2023-07-31T06:54:01;1.05;;;0.85;;
19547;SDS011;9919;58.014;11.826;2023-07-31T06:56:04;0.98;;;0.63;;
19547;SDS011;9919;58.014;11.826;2023-07-31T06:58:06;0.57;;;0.57;;
19547;SDS011;9919;58.014;11.826;2023-07-31T07:00:07;0.50;;;0.50;;
19547;SDS011;9919;58.014;11.826;2023-07-31T07:02:10;0.82;;;0.50;;
19547;SDS011;9919;58.014;11.826;2023-07-31T07:04:11;0.55;;;0.55;;
19547;SDS011;9919;58.014;11.826;2023-07-31T07:06:13;0.60;;;0.60;;
19547;SDS011;9919;58.014;11.826;2023-07-31T07:08:15;0.50;;;0.50;;
19547;SDS011;9919;58.014;11.826;2023-07-31T07:10:17;0.95;;;0.80;;
19547;SDS011;9919;58.014;11.826;2023-07-31T07:12:19;0.50;;;0.50;;
19547;SDS011;9919;58.014;11.826;2023-07-31T07:14:20;0.80;;;0.80;;
19547;SDS011;9919;58.014;11.826;2023-07-31T07:16:22;0.73;;;0.73;;
19547;SDS011;9919;58.014;11.826;2023-07-31T07:18:23;0.52;;;0.50;;
19547;SDS011;9919;58.014;11.826;2023-07-31T07:20:25;0.73;;;0.70;;
19547;SDS011;9919;58.014;11.826;2023-07-31T07:22:26;0.70;;;0.70;;
19547;SDS011;9919;58.014;11.826;2023-07-31T07:24:28;1.50;;;0.85;;
19547;SDS011;9919;58.014;11.826;2023-07-31T07:26:29;0.63;;;0.63;;
19547;SDS011;9919;58.014;11.826;2023-07-31T07:28:31;0.90;;;0.90;;
19547;SDS011;9919;58.014;11.826;2023-07-31T07:30:33;0.80;;;0.80;;
19547;SDS011;9919;58.014;11.826;2023-07-31T07:32:34;0.88;;;0.73;;
19547;SDS011;9919;58.014;11.826;2023-07-31T07:34:36;1.48;;;0.80;;
19547;SDS011;9919;58.014;11.826;2023-07-31T07:36:37;0.63;;;0.60;;
19547;SDS011;9919;58.014;11.826;2023-07-31T07:38:39;0.95;;;0.90;;
19547;SDS011;9919;58.014;11.826;2023-07-31T07:40:41;0.75;;;0.52;;
19547;SDS011;9919;58.014;11.826;2023-07-31T07:42:42;0.63;;;0.63;;
19547;SDS011;9919;58.014;11.826;2023-07-31T07:44:44;3.03;;;0.68;;
19547;SDS011;9919;58.014;11.826;2023-07-31T07:46:47;0.70;;;0.70;;
19547;SDS011;9919;58.014;11.826;2023-07-31T07:48:48;1.50;;;0.50;;
19547;SDS011;9919;58.014;11.826;2023-07-31T07:50:50;0.60;;;0.60;;
19547;SDS011;9919;58.014;11.826;2023-07-31T07:52:51;0.70;;;0.70;;
19547;SDS011;9919;58.014;11.826;2023-07-31T07:54:53;0.75;;;0.75;;
19547;SDS011;9919;58.014;11.826;2023-07-31T07:56:54;0.60;;;0.60;;
19547;SDS011;9919;58.014;11.826;2023-07-31T07:58:55;1.25;;;0.45;;
19547;SDS011;9919;58.014;11.826;2023-07-31T08:00:57;0.68;;;0.68;;
19547;SDS011;9919;58.014;11.826;2023-07-31T08:02:58;0.68;;;0.63;;
19547;SDS011;9919;58.014;11.826;2023-07-31T08:04:59;0.98;;;0.68;;
19547;SDS011;9919;58.014;11.826;2023-07-31T08:07:01;0.63;;;0.63;;
19547;SDS011;9919;58.014;11.826;2023-07-31T08:09:04;0.93;;;0.50;;
19547;SDS011;9919;58.014;11.826;2023-07-31T08:11:06;0.80;;;0.60;;
19547;SDS011;9919;58.014;11.826;2023-07-31T08:13:07;1.85;;;1.00;;
19547;SDS011;9919;58.014;11.826;2023-07-31T08:15:13;2.05;;;0.82;;
19547;SDS011;9919;58.014;11.826;2023-07-31T08:17:14;0.73;;;0.70;;
19547;SDS011;9919;58.014;11.826;2023-07-31T08:19:16;0.75;;;0.75;;
19547;SDS011;9919;58.014;11.826;2023-07-31T08:21:18;0.80;;;0.80;;
19547;SDS011;9919;58.014;11.826;2023-07-31T08:23:19;0.85;;;0.85;;
19547;SDS011;9919;58.014;11.826;2023-07-31T08:25:21;0.60;;;0.60;;
19547;SDS011;9919;58.014;11.826;2023-07-31T08:27:22;0.80;;;0.70;;
19547;SDS011;9919;58.014;11.826;2023-07-31T08:29:24;1.17;;;0.77;;
19547;SDS011;9919;58.014;11.826;2023-07-31T08:31:26;2.15;;;0.65;;
19547;SDS011;9919;58.014;11.826;2023-07-31T08:33:29;0.40;;;0.40;;
19547;SDS011;9919;58.014;11.826;2023-07-31T08:35:30;0.50;;;0.50;;
19547;SDS011;9919;58.014;11.826;2023-07-31T08:37:32;1.10;;;0.75;;
19547;SDS011;9919;58.014;11.826;2023-07-31T08:39:33;0.93;;;0.73;;
19547;SDS011;9919;58.014;11.826;2023-07-31T08:41:38;0.82;;;0.68;;
19547;SDS011;9919;58.014;11.826;2023-07-31T08:43:39;0.88;;;0.80;;
19547;SDS011;9919;58.014;11.826;2023-07-31T08:45:41;0.60;;;0.60;;
19547;SDS011;9919;58.014;11.826;2023-07-31T08:47:47;0.50;;;0.50;;
19547;SDS011;9919;58.014;11.826;2023-07-31T08:49:50;0.70;;;0.70;;
19547;SDS011;9919;58.014;11.826;2023-07-31T08:51:52;0.63;;;0.63;;
19547;SDS011;9919;58.014;11.826;2023-07-31T08:53:55;0.80;;;0.60;;
19547;SDS011;9919;58.014;11.826;2023-07-31T08:55:57;0.52;;;0.35;;
19547;SDS011;9919;58.014;11.826;2023-07-31T08:57:59;1.55;;;0.40;;
19547;SDS011;9919;58.014;11.826;2023-07-31T09:00:03;0.60;;;0.50;;
19547;SDS011;9919;58.014;11.826;2023-07-31T09:02:06;0.63;;;0.63;;
19547;SDS011;9919;58.014;11.826;2023-07-31T09:04:09;0.90;;;0.77;;
19547;SDS011;9919;58.014;11.826;2023-07-31T09:06:10;0.50;;;0.50;;
19547;SDS011;9919;58.014;11.826;2023-07-31T09:08:13;0.68;;;0.68;;
19547;SDS011;9919;58.014;11.826;2023-07-31T09:10:18;1.70;;;0.80;;
19547;SDS011;9919;58.014;11.826;2023-07-31T09:12:19;0.50;;;0.50;;
19547;SDS011;9919;58.014;11.826;2023-07-31T09:14:21;0.55;;;0.55;;
19547;SDS011;9919;58.014;11.826;2023-07-31T09:16:29;0.50;;;0.50;;
19547;SDS011;9919;58.014;11.826;2023-07-31T09:18:32;0.70;;;0.70;;
19547;SDS011;9919;58.014;11.826;2023-07-31T09:20:40;0.63;;;0.63;;
19547;SDS011;9919;58.014;11.826;2023-07-31T09:22:42;0.65;;;0.65;;
19547;SDS011;9919;58.014;11.826;2023-07-31T09:24:44;0.73;;;0.73;;
19547;SDS011;9919;58.014;11.826;2023-07-31T09:26:45;0.93;;;0.73;;
19547;SDS011;9919;58.014;11.826;2023-07-31T09:28:47;0.75;;;0.75;;
19547;SDS011;9919;58.014;11.826;2023-07-31T09:30:49;0.70;;;0.70;;
19547;SDS011;9919;58.014;11.826;2023-07-31T09:33:00;0.73;;;0.45;;
19547;SDS011;9919;58.014;11.826;2023-07-31T09:35:13;0.60;;;0.60;;
19547;SDS011;9919;58.014;11.826;2023-07-31T09:37:21;0.65;;;0.65;;
19547;SDS011;9919;58.014;11.826;2023-07-31T09:39:22;0.77;;;0.77;;
19547;SDS011;9919;58.014;11.826;2023-07-31T09:41:24;0.95;;;0.70;;
19547;SDS011;9919;58.014;11.826;2023-07-31T09:43:25;1.55;;;0.77;;
19547;SDS011;9919;58.014;11.826;2023-07-31T09:45:27;0.73;;;0.73;;
19547;SDS011;9919;58.014;11.826;2023-07-31T09:47:29;0.80;;;0.73;;
19547;SDS011;9919;58.014;11.826;2023-07-31T09:49:31;2.83;;;0.70;;
19547;SDS011;9919;58.014;11.826;2023-07-31T09:51:32;1.02;;;0.60;;
19547;SDS011;9919;58.014;11.826;2023-07-31T09:53:38;0.50;;;0.50;;
19547;SDS011;9919;58.014;11.826;2023-07-31T09:55:40;0.70;;;0.70;;
19547;SDS011;9919;58.014;11.826;2023-07-31T09:57:43;2.92;;;0.98;;
19547;SDS011;9919;58.014;11.826;2023-07-31T09:59:47;0.75;;;0.75;;
19547;SDS011;9919;58.014;11.826;2023-07-31T10:01:51;7.25;;;1.05;;
19547;SDS011;9919;58.014;11.826;2023-07-31T10:03:54;1.88;;;1.00;;
19547;SDS011;9919;58.014;11.826;2023-07-31T10:05:55;7.00;;;0.75;;
19547;SDS011;9919;58.014;11.826;2023-07-31T10:07:58;1.52;;;0.60;;
19547;SDS011;9919;58.014;11.826;2023-07-31T10:10:00;5.47;;;0.93;;
19547;SDS011;9919;58.014;11.826;2023-07-31T10:12:02;4.30;;;0.90;;
19547;SDS011;9919;58.014;11.826;2023-07-31T10:14:09;2.38;;;0.80;;
19547;SDS011;9919;58.014;11.826;2023-07-31T10:16:11;0.60;;;0.60;;
19547;SDS011;9919;58.014;11.826;2023-07-31T10:18:13;0.63;;;0.63;;
19547;SDS011;9919;58.014;11.826;2023-07-31T10:20:15;0.65;;;0.65;;
19547;SDS011;9919;58.014;11.826;2023-07-31T10:22:18;1.60;;;0.70;;
19547;SDS011;9919;58.014;11.826;2023-07-31T10:24:20;4.60;;;0.90;;
19547;SDS011;9919;58.014;11.826;2023-07-31T10:26:21;3.50;;;0.95;;
19547;SDS011;9919;58.014;11.826;2023-07-31T10:28:24;2.40;;;0.70;;
19547;SDS011;9919;58.014;11.826;2023-07-31T10:30:32;3.67;;;0.82;;
19547;SDS011;9919;58.014;11.826;2023-07-31T10:32:34;2.45;;;0.90;;
19547;SDS011;9919;58.014;11.826;2023-07-31T10:34:38;0.55;;;0.55;;
19547;SDS011;9919;58.014;11.826;2023-07-31T10:36:41;0.95;;;0.82;;
19547;SDS011;9919;58.014;11.826;2023-07-31T10:38:42;1.30;;;0.68;;
19547;SDS011;9919;58.014;11.826;2023-07-31T10:40:45;1.63;;;0.70;;
19547;SDS011;9919;58.014;11.826;2023-07-31T10:42:50;1.05;;;0.90;;
19547;SDS011;9919;58.014;11.826;2023-07-31T10:44:56;1.08;;;0.50;;
19547;SDS011;9919;58.014;11.826;2023-07-31T10:47:00;1.20;;;0.70;;
19547;SDS011;9919;58.014;11.826;2023-07-31T10:49:03;2.08;;;0.80;;
19547;SDS011;9919;58.014;11.826;2023-07-31T10:51:06;1.42;;;0.80;;
19547;SDS011;9919;58.014;11.826;2023-07-31T10:53:09;2.38;;;0.82;;
19547;SDS011;9919;58.014;11.826;2023-07-31T10:55:33;1.27;;;0.82;;
19547;SDS011;9919;58.014;11.826;2023-07-31T10:57:44;0.43;;;0.43;;
19547;SDS011;9919;58.014;11.826;2023-07-31T10:59:48;1.95;;;0.55;;
19547;SDS011;9919;58.014;11.826;2023-07-31T11:03:56;32.40;;;3.13;;
19547;SDS011;9919;58.014;11.826;2023-07-31T11:08:00;8.40;;;2.17;;
19547;SDS011;9919;58.014;11.826;2023-07-31T11:10:29;20.60;;;2.75;;
19547;SDS011;9919;58.014;11.826;2023-07-31T11:12:31;21.50;;;2.88;;
19547;SDS011;9919;58.014;11.826;2023-07-31T11:14:33;21.73;;;3.15;;
19547;SDS011;9919;58.014;11.826;2023-07-31T11:16:34;6.20;;;1.65;;
19547;SDS011;9919;58.014;11.826;2023-07-31T11:18:37;13.43;;;2.65;;
19547;SDS011;9919;58.014;11.826;2023-07-31T11:20:41;9.13;;;2.42;;
19547;SDS011;9919;58.014;11.826;2023-07-31T11:22:42;9.00;;;2.15;;
19547;SDS011;9919;58.014;11.826;2023-07-31T11:24:44;8.38;;;2.63;;
19547;SDS011;9919;58.014;11.826;2023-07-31T11:26:52;10.65;;;2.25;;
19547;SDS011;9919;58.014;11.826;2023-07-31T11:28:53;12.82;;;3.15;;
19547;SDS011;9919;58.014;11.826;2023-07-31T11:30:55;13.57;;;2.05;;
19547;SDS011;9919;58.014;11.826;2023-07-31T11:32:56;14.13;;;2.90;;
19547;SDS011;9919;58.014;11.826;2023-07-31T11:34:58;14.48;;;2.58;;
19547;SDS011;9919;58.014;11.826;2023-07-31T11:37:00;7.72;;;2.03;;
19547;SDS011;9919;58.014;11.826;2023-07-31T11:39:05;10.90;;;2.05;;
19547;SDS011;9919;58.014;11.826;2023-07-31T11:41:09;7.57;;;1.48;;
19547;SDS011;9919;58.014;11.826;2023-07-31T11:43:13;4.80;;;1.20;;
19547;SDS011;9919;58.014;11.826;2023-07-31T11:45:17;8.75;;;1.23;;
19547;SDS011;9919;58.014;11.826;2023-07-31T11:47:18;5.75;;;1.40;;
19547;SDS011;9919;58.014;11.826;2023-07-31T11:49:21;8.95;;;1.85;;
19547;SDS011;9919;58.014;11.826;2023-07-31T11:51:22;2.92;;;0.88;;
19547;SDS011;9919;58.014;11.826;2023-07-31T11:53:25;5.32;;;1.35;;
19547;SDS011;9919;58.014;11.826;2023-07-31T11:55:29;5.47;;;1.15;;
19547;SDS011;9919;58.014;11.826;2023-07-31T11:57:30;1.90;;;1.05;;
19547;SDS011;9919;58.014;11.826;2023-07-31T11:59:32;7.72;;;1.10;;
19547;SDS011;9919;58.014;11.826;2023-07-31T12:01:33;1.75;;;0.73;;
19547;SDS011;9919;58.014;11.826;2023-07-31T12:03:35;2.88;;;1.13;;
19547;SDS011;9919;58.014;11.826;2023-07-31T12:05:37;2.35;;;1.00;;
19547;SDS011;9919;58.014;11.826;2023-07-31T12:09:53;2.17;;;1.27;;
19547;SDS011;9919;58.014;11.826;2023-07-31T12:11:55;4.38;;;0.75;;
19547;SDS011;9919;58.014;11.826;2023-07-31T12:13:56;5.72;;;0.88;;
19547;SDS011;9919;58.014;11.826;2023-07-31T12:16:01;2.17;;;0.90;;
19547;SDS011;9919;58.014;11.826;2023-07-31T12:18:04;3.00;;;1.30;;
19547;SDS011;9919;58.014;11.826;2023-07-31T12:20:16;1.65;;;0.73;;
19547;SDS011;9919;58.014;11.826;2023-07-31T12:22:17;0.50;;;0.50;;
19547;SDS011;9919;58.014;11.826;2023-07-31T12:24:21;1.27;;;0.75;;
19547;SDS011;9919;58.014;11.826;2023-07-31T12:26:22;2.03;;;1.02;;